createdAt,value
2023-05-10T00:02:26.053Z,3.03
2023-05-10T00:04:54.169Z,4.00
2023-05-10T00:07:21.550Z,2.78
2023-05-10T00:09:48.885Z,3.30
2023-05-10T00:12:16.244Z,3.83
2023-05-10T00:14:43.602Z,3.83
2023-05-10T00:17:10.930Z,2.88
2023-05-10T00:19:38.225Z,5.13
2023-05-10T00:22:05.535Z,3.42
2023-05-10T00:24:32.848Z,5.35
2023-05-10T00:27:00.257Z,4.32
2023-05-10T00:29:29.119Z,3.97
2023-05-10T00:31:57.284Z,2.85
2023-05-10T00:34:25.737Z,5.45
2023-05-10T00:36:53.038Z,4.75
2023-05-10T00:39:20.493Z,4.32
2023-05-10T00:41:48.106Z,4.35
2023-05-10T00:44:15.514Z,4.65
2023-05-10T00:46:43.365Z,3.47
2023-05-10T00:49:10.984Z,3.40
2023-05-10T00:51:38.515Z,4.70
2023-05-10T00:54:06.356Z,4.35
2023-05-10T00:56:34.037Z,4.65
2023-05-10T00:59:01.969Z,3.97
2023-05-10T01:01:29.885Z,2.97
2023-05-10T01:03:58.034Z,5.63
2023-05-10T01:06:25.371Z,4.05
2023-05-10T01:08:52.840Z,6.53
2023-05-10T01:11:20.280Z,4.95
2023-05-10T01:13:53.684Z,5.53
2023-05-10T01:16:21.356Z,6.70
2023-05-10T01:18:49.483Z,5.35
2023-05-10T01:21:42.303Z,4.07
2023-05-10T01:24:18.371Z,5.82
2023-05-10T01:27:04.222Z,4.18
2023-05-10T01:30:15.566Z,5.90
2023-05-10T01:32:46.187Z,5.25
2023-05-10T01:35:38.451Z,5.72
2023-05-10T01:38:31.307Z,5.30
2023-05-10T01:41:21.062Z,6.60
2023-05-10T01:43:55.703Z,7.43
2023-05-10T01:46:40.644Z,5.57
2023-05-10T01:49:24.200Z,5.35
2023-05-10T01:51:55.811Z,4.30
2023-05-10T01:54:25.544Z,6.13
2023-05-10T01:56:59.712Z,5.47
2023-05-10T01:59:30.799Z,5.90
2023-05-10T02:02:00.869Z,5.20
2023-05-10T02:04:29.239Z,5.82
2023-05-10T02:06:57.439Z,5.13
2023-05-10T02:09:28.900Z,5.82
2023-05-10T02:11:58.674Z,5.80
2023-05-10T02:14:27.564Z,7.10
2023-05-10T02:16:56.997Z,5.18
2023-05-10T02:19:26.099Z,6.57
2023-05-10T02:21:55.092Z,7.13
2023-05-10T02:24:25.377Z,4.80
2023-05-10T02:26:55.491Z,7.22
2023-05-10T02:29:28.197Z,6.20
2023-05-10T02:34:27.065Z,5.55
2023-05-10T02:36:55.961Z,6.45
2023-05-10T02:39:25.748Z,7.75
2023-05-10T02:41:54.547Z,5.78
2023-05-10T02:44:23.533Z,6.20
2023-05-10T02:46:51.007Z,7.32
2023-05-10T02:49:19.376Z,5.70
2023-05-10T02:51:57.697Z,7.10
2023-05-10T02:54:32.940Z,5.50
2023-05-10T02:57:03.946Z,7.13
2023-05-10T02:59:31.965Z,5.75
2023-05-10T03:02:01.147Z,5.35
2023-05-10T03:04:28.534Z,6.82
2023-05-10T03:06:56.043Z,8.40
2023-05-10T03:09:23.449Z,7.40
2023-05-10T03:12:15.258Z,8.07
2023-05-10T03:15:01.725Z,8.40
2023-05-10T03:17:47.181Z,6.60
2023-05-10T03:20:30.200Z,7.38
2023-05-10T03:23:20.889Z,7.75
2023-05-10T03:25:51.534Z,6.82
2023-05-10T03:28:21.396Z,10.43
2023-05-10T03:30:50.085Z,8.32
2023-05-10T03:33:17.471Z,5.82
2023-05-10T03:35:46.739Z,6.78
2023-05-10T03:38:14.585Z,6.47
2023-05-10T03:40:41.937Z,7.35
2023-05-10T03:43:09.437Z,8.40
2023-05-10T03:45:37.289Z,6.55
2023-05-10T03:48:05.266Z,4.65
2023-05-10T03:50:32.690Z,6.30
2023-05-10T03:53:00.167Z,6.55
2023-05-10T03:55:27.789Z,3.92
2023-05-10T03:57:55.300Z,4.10
2023-05-10T04:00:25.955Z,4.88
2023-05-10T04:02:53.460Z,4.45
2023-05-10T04:05:21.120Z,4.75
2023-05-10T04:07:50.280Z,5.97
2023-05-10T04:10:18.035Z,5.55
2023-05-10T04:12:45.712Z,5.07
2023-05-10T04:15:13.156Z,5.00
2023-05-10T04:17:40.762Z,5.68
2023-05-10T04:20:09.344Z,4.95
2023-05-10T04:22:36.788Z,5.10
2023-05-10T04:25:05.789Z,5.13
2023-05-10T04:27:34.131Z,5.85
2023-05-10T04:30:01.692Z,4.82
2023-05-10T04:32:29.341Z,5.60
2023-05-10T04:34:56.748Z,7.03
2023-05-10T04:37:24.281Z,4.25
2023-05-10T04:39:51.906Z,4.57
2023-05-10T04:42:19.236Z,4.13
2023-05-10T04:44:46.534Z,5.22
2023-05-10T04:47:14.502Z,7.75
2023-05-10T04:49:41.877Z,3.55
2023-05-10T04:52:09.263Z,5.55
2023-05-10T04:54:36.679Z,4.03
2023-05-10T04:57:04.046Z,6.32
2023-05-10T04:59:31.342Z,4.07
2023-05-10T05:01:58.696Z,3.05
2023-05-10T05:04:26.091Z,6.82
2023-05-10T05:06:53.966Z,4.22
2023-05-10T05:09:21.497Z,3.80
2023-05-10T05:11:49.304Z,5.03
2023-05-10T05:14:16.630Z,4.28
2023-05-10T05:16:44.076Z,4.07
2023-05-10T05:19:11.401Z,4.47
2023-05-10T05:21:38.984Z,4.85
2023-05-10T05:24:06.809Z,3.55
2023-05-10T05:26:34.260Z,2.67
2023-05-10T05:29:01.675Z,2.92
2023-05-10T05:31:29.057Z,2.63
2023-05-10T05:33:56.785Z,3.88
2023-05-10T05:36:24.174Z,3.92
2023-05-10T05:38:51.712Z,3.63
2023-05-10T05:41:19.101Z,3.78
2023-05-10T05:43:46.394Z,3.25
2023-05-10T05:46:13.822Z,6.80
2023-05-10T05:48:41.228Z,8.45
2023-05-10T05:51:08.577Z,4.90
2023-05-10T05:53:37.052Z,6.65
2023-05-10T05:56:04.688Z,5.97
2023-05-10T05:58:32.063Z,6.40
2023-05-10T06:00:59.580Z,4.47
2023-05-10T06:03:27.067Z,4.47
2023-05-10T06:05:54.439Z,4.30
2023-05-10T06:08:21.921Z,4.03
2023-05-10T06:10:49.389Z,5.15
2023-05-10T06:13:16.685Z,5.88
2023-05-10T06:15:44.147Z,3.88
2023-05-10T06:18:11.484Z,5.30
2023-05-10T06:20:38.973Z,4.75
2023-05-10T06:23:06.406Z,6.68
2023-05-10T06:25:33.884Z,5.07
2023-05-10T06:28:01.353Z,4.32
2023-05-10T06:30:30.660Z,9.85
2023-05-10T06:32:58.292Z,2.55
2023-05-10T06:35:25.826Z,7.55
2023-05-10T06:37:53.485Z,6.10
2023-05-10T06:40:20.938Z,8.32
2023-05-10T06:42:49.181Z,5.05
2023-05-10T06:45:17.583Z,6.70
2023-05-10T06:47:45.361Z,6.60
2023-05-10T06:50:13.100Z,5.85
2023-05-10T06:52:40.746Z,6.53
2023-05-10T06:55:09.434Z,7.90
2023-05-10T06:57:36.750Z,11.98
2023-05-10T07:00:05.920Z,5.65
2023-05-10T07:02:33.482Z,5.13
2023-05-10T07:05:02.756Z,4.47
2023-05-10T07:07:30.939Z,5.03
2023-05-10T07:09:58.782Z,4.53
2023-05-10T07:12:26.726Z,5.25
2023-05-10T07:14:54.381Z,5.00
2023-05-10T07:17:22.018Z,5.13
2023-05-10T07:19:49.548Z,9.07
2023-05-10T07:22:17.758Z,6.57
2023-05-10T07:24:45.143Z,8.73
2023-05-10T07:27:13.851Z,5.28
2023-05-10T07:29:41.404Z,8.60
2023-05-10T07:32:08.958Z,7.85
2023-05-10T07:34:36.452Z,6.88
2023-05-10T07:37:03.868Z,4.68
2023-05-10T07:39:31.203Z,5.10
2023-05-10T07:41:58.494Z,5.47
2023-05-10T07:44:25.878Z,3.92
2023-05-10T07:46:53.550Z,3.22
2023-05-10T07:49:21.014Z,3.15
2023-05-10T07:51:48.336Z,1.20
2023-05-10T07:54:16.007Z,4.13
2023-05-10T07:56:48.007Z,2.17
2023-05-10T07:59:18.006Z,5.93
2023-05-10T08:01:46.159Z,4.75
2023-05-10T08:04:13.820Z,5.22
2023-05-10T08:06:41.894Z,3.15
2023-05-10T08:09:10.825Z,1.33
2023-05-10T08:11:38.228Z,1.77
2023-05-10T08:14:05.649Z,2.95
2023-05-10T08:16:33.538Z,4.75
2023-05-10T08:19:01.091Z,1.45
2023-05-10T08:21:28.449Z,0.93
2023-05-10T08:23:55.861Z,0.80
2023-05-10T08:26:23.224Z,1.05
2023-05-10T08:28:50.671Z,1.20
2023-05-10T08:31:19.065Z,1.00
2023-05-10T08:33:46.581Z,1.45
2023-05-10T08:36:15.317Z,0.50
2023-05-10T08:38:42.659Z,1.05
2023-05-10T08:41:11.113Z,1.15
2023-05-10T08:43:39.489Z,0.73
2023-05-10T08:46:08.786Z,2.50
2023-05-10T08:48:36.988Z,5.22
2023-05-10T08:51:05.221Z,2.15
2023-05-10T08:53:34.295Z,1.17
2023-05-10T08:56:03.438Z,1.20
2023-05-10T08:58:31.822Z,0.75
2023-05-10T09:01:00.816Z,0.63
2023-05-10T09:03:28.253Z,1.40
2023-05-10T09:05:56.902Z,0.57
2023-05-10T09:08:28.189Z,3.97
2023-05-10T09:10:57.076Z,2.83
2023-05-10T09:13:25.734Z,2.40
2023-05-10T09:15:53.993Z,3.67
2023-05-10T09:18:21.370Z,0.70
2023-05-10T09:20:49.607Z,1.15
2023-05-10T09:23:16.900Z,0.75
2023-05-10T09:25:44.341Z,1.80
2023-05-10T09:28:12.273Z,0.95
2023-05-10T09:30:40.331Z,1.60
2023-05-10T09:33:08.050Z,2.28
2023-05-10T09:35:35.588Z,1.52
2023-05-10T09:38:05.889Z,1.30
2023-05-10T09:40:33.738Z,6.05
2023-05-10T09:43:02.238Z,2.88
2023-05-10T09:45:36.146Z,1.02
2023-05-10T09:48:06.130Z,0.98
2023-05-10T09:50:35.151Z,0.73
2023-05-10T09:53:04.847Z,0.70
2023-05-10T09:55:45.881Z,0.55
2023-05-10T09:58:15.135Z,2.13
2023-05-10T10:00:44.699Z,1.77
2023-05-10T10:03:17.028Z,3.22
2023-05-10T10:05:47.048Z,1.77
2023-05-10T10:08:15.169Z,1.58
2023-05-10T10:10:43.509Z,4.95
2023-05-10T10:13:10.948Z,5.72
2023-05-10T10:15:38.386Z,5.57
2023-05-10T10:18:07.787Z,4.80
2023-05-10T10:20:38.178Z,5.13
2023-05-10T10:23:05.492Z,3.30
2023-05-10T10:25:33.228Z,2.72
2023-05-10T10:28:28.274Z,3.72
2023-05-10T10:31:01.172Z,5.68
2023-05-10T10:36:04.223Z,4.82
2023-05-10T10:39:00.567Z,1.25
2023-05-10T10:42:00.977Z,1.00
2023-05-10T10:44:28.541Z,1.30
2023-05-10T10:47:03.786Z,1.17
2023-05-10T10:49:38.785Z,2.15
2023-05-10T10:52:16.856Z,1.40
2023-05-10T10:54:58.782Z,1.35
2023-05-10T10:57:27.665Z,1.83
2023-05-10T11:00:21.879Z,1.00
2023-05-10T11:03:07.765Z,1.25
2023-05-10T11:05:45.481Z,2.17
2023-05-10T11:08:30.634Z,0.95
2023-05-10T11:11:00.910Z,0.43
2023-05-10T11:13:51.577Z,0.68
2023-05-10T11:16:19.154Z,1.27
2023-05-10T11:19:08.800Z,0.90
2023-05-10T11:21:52.929Z,1.13
2023-05-10T11:24:23.335Z,2.47
2023-05-10T11:26:54.326Z,0.82
2023-05-10T11:29:21.751Z,0.55
2023-05-10T11:31:50.446Z,0.88
2023-05-10T11:34:28.918Z,3.45
2023-05-10T11:36:57.526Z,6.28
2023-05-10T11:39:32.800Z,5.10
2023-05-10T11:42:00.535Z,3.75
2023-05-10T11:44:32.623Z,1.83
2023-05-10T11:47:01.733Z,1.15
2023-05-10T11:49:29.383Z,2.83
2023-05-10T11:52:07.156Z,1.02
2023-05-10T11:54:36.050Z,0.80
2023-05-10T11:57:04.043Z,1.02
2023-05-10T11:59:31.456Z,0.35
2023-05-10T12:01:59.016Z,1.40
2023-05-10T12:04:27.032Z,0.90
2023-05-10T12:06:54.515Z,1.40
2023-05-10T12:09:35.548Z,0.50
2023-05-10T12:12:09.183Z,0.60
2023-05-10T12:14:36.954Z,0.77
2023-05-10T12:17:04.405Z,1.33
2023-05-10T12:19:39.653Z,1.23
2023-05-10T12:22:07.472Z,1.60
2023-05-10T12:24:39.791Z,1.75
2023-05-10T12:29:55.683Z,1.77
2023-05-10T12:32:38.098Z,3.10
2023-05-10T12:35:05.931Z,1.95
2023-05-10T12:37:36.750Z,2.47
2023-05-10T12:40:05.991Z,2.13
2023-05-10T12:42:33.376Z,2.55
2023-05-10T12:45:00.600Z,2.88
2023-05-10T12:47:28.144Z,2.40
2023-05-10T12:49:55.584Z,1.63
2023-05-10T12:52:22.958Z,1.80
2023-05-10T12:54:50.340Z,2.25
2023-05-10T12:57:17.973Z,0.95
2023-05-10T12:59:45.360Z,2.67
2023-05-10T13:02:12.740Z,2.20
2023-05-10T13:04:40.851Z,1.42
2023-05-10T13:07:08.631Z,1.23
2023-05-10T13:09:36.196Z,2.38
2023-05-10T13:12:03.967Z,1.48
2023-05-10T13:14:31.883Z,4.30
2023-05-10T13:16:59.417Z,1.52
2023-05-10T13:19:27.884Z,2.00
2023-05-10T13:21:55.351Z,1.13
2023-05-10T13:24:22.702Z,1.30
2023-05-10T13:26:50.358Z,1.92
2023-05-10T13:29:19.037Z,1.95
2023-05-10T13:31:46.668Z,1.42
2023-05-10T13:34:14.067Z,2.10
2023-05-10T13:36:41.368Z,1.08
2023-05-10T13:39:09.468Z,1.92
2023-05-10T13:41:37.717Z,2.05
2023-05-10T13:44:05.025Z,1.48
2023-05-10T13:46:32.369Z,0.75
2023-05-10T13:48:59.727Z,2.00
2023-05-10T13:51:26.968Z,1.58
2023-05-10T13:53:54.291Z,0.93
2023-05-10T13:56:21.607Z,2.25
2023-05-10T13:58:48.899Z,1.30
2023-05-10T14:01:16.352Z,0.98
2023-05-10T14:03:43.878Z,1.35
2023-05-10T14:06:11.342Z,1.10
2023-05-10T14:08:38.658Z,2.13
2023-05-10T14:11:06.130Z,2.15
2023-05-10T14:13:33.816Z,1.50
2023-05-10T14:16:01.741Z,1.75
2023-05-10T14:18:29.329Z,1.05
2023-05-10T14:20:56.750Z,1.00
2023-05-10T14:23:29.643Z,2.45
2023-05-10T14:25:57.400Z,1.38
2023-05-10T14:28:25.996Z,0.90
2023-05-10T14:30:53.388Z,1.55
2023-05-10T14:33:21.714Z,1.17
2023-05-10T14:35:49.073Z,0.68
2023-05-10T14:38:16.625Z,0.50
2023-05-10T14:40:44.422Z,1.75
2023-05-10T14:43:11.786Z,1.33
2023-05-10T14:45:39.192Z,0.70
2023-05-10T14:48:06.924Z,1.58
2023-05-10T14:50:36.532Z,1.90
2023-05-10T14:53:04.676Z,3.38
2023-05-10T14:55:32.165Z,1.52
2023-05-10T14:57:59.605Z,1.95
2023-05-10T15:00:28.489Z,3.15
2023-05-10T15:02:56.278Z,2.65
2023-05-10T15:05:24.388Z,3.08
2023-05-10T15:07:52.297Z,3.20
2023-05-10T15:10:19.898Z,4.28
2023-05-10T15:12:48.409Z,1.90
2023-05-10T15:15:16.185Z,4.28
2023-05-10T15:17:43.739Z,2.65
2023-05-10T15:20:11.330Z,2.40
2023-05-10T15:22:39.224Z,3.22
2023-05-10T15:25:07.034Z,2.45
2023-05-10T15:27:34.446Z,3.20
2023-05-10T15:30:02.195Z,2.88
2023-05-10T15:32:32.530Z,1.80
2023-05-10T15:35:00.351Z,3.75
2023-05-10T15:37:28.446Z,3.90
2023-05-10T15:40:02.450Z,2.00
2023-05-10T15:42:32.962Z,5.68
2023-05-10T15:45:00.702Z,3.25
2023-05-10T15:47:31.160Z,2.50
2023-05-10T15:49:58.575Z,2.20
2023-05-10T15:52:25.993Z,5.07
2023-05-10T15:54:53.430Z,2.38
2023-05-10T15:57:20.713Z,2.10
2023-05-10T15:59:48.088Z,1.50
2023-05-10T16:02:16.063Z,2.45
2023-05-10T16:04:44.689Z,2.15
2023-05-10T16:07:12.069Z,2.65
2023-05-10T16:09:39.485Z,2.47
2023-05-10T16:12:08.052Z,2.13
2023-05-10T16:14:35.526Z,1.73
2023-05-10T16:17:04.283Z,1.13
2023-05-10T16:19:31.754Z,2.85
2023-05-10T16:21:59.284Z,2.63
2023-05-10T16:24:27.117Z,2.33
2023-05-10T16:26:54.557Z,2.22
2023-05-10T16:29:21.958Z,4.80
2023-05-10T16:31:49.259Z,3.90
2023-05-10T16:34:16.773Z,1.65
2023-05-10T16:36:44.155Z,1.88
2023-05-10T16:39:11.463Z,1.65
2023-05-10T16:41:38.876Z,1.63
2023-05-10T16:44:06.581Z,2.05
2023-05-10T16:46:33.975Z,1.13
2023-05-10T16:49:01.470Z,1.55
2023-05-10T16:51:29.417Z,1.95
2023-05-10T16:53:56.845Z,1.48
2023-05-10T16:56:24.465Z,2.42
2023-05-10T16:58:52.074Z,1.48
2023-05-10T17:01:19.651Z,1.92
2023-05-10T17:03:47.195Z,0.80
2023-05-10T17:06:14.692Z,2.45
2023-05-10T17:08:42.193Z,1.17
2023-05-10T17:11:09.536Z,3.22
2023-05-10T17:13:38.804Z,1.70
2023-05-10T17:16:06.226Z,1.50
2023-05-10T17:18:33.743Z,1.15
2023-05-10T17:21:01.110Z,2.30
2023-05-10T17:23:28.606Z,3.17
2023-05-10T17:25:56.382Z,2.15
2023-05-10T17:28:23.744Z,1.17
2023-05-10T17:30:57.490Z,1.63
2023-05-10T17:33:24.955Z,3.63
2023-05-10T17:35:52.647Z,1.90
2023-05-10T17:38:20.088Z,5.13
2023-05-10T17:40:47.469Z,4.90
2023-05-10T17:43:14.905Z,1.70
2023-05-10T17:45:42.544Z,2.65
2023-05-10T17:48:11.448Z,2.80
2023-05-10T17:50:41.713Z,7.72
2023-05-10T17:53:09.575Z,2.20
2023-05-10T17:55:39.948Z,1.65
2023-05-10T17:58:07.346Z,2.28
2023-05-10T18:00:34.752Z,1.80
2023-05-10T18:03:03.650Z,7.28
2023-05-10T18:05:31.680Z,2.03
2023-05-10T18:07:59.178Z,1.80
2023-05-10T18:10:26.553Z,1.02
2023-05-10T18:12:54.193Z,1.67
2023-05-10T18:15:21.891Z,1.88
2023-05-10T18:17:50.433Z,1.85
2023-05-10T18:20:18.601Z,1.27
2023-05-10T18:22:45.997Z,1.90
2023-05-10T18:25:13.397Z,1.10
2023-05-10T18:27:40.780Z,1.90
2023-05-10T18:30:10.142Z,1.58
2023-05-10T18:32:38.483Z,2.25
2023-05-10T18:35:07.651Z,2.13
2023-05-10T18:37:35.626Z,2.65
2023-05-10T18:40:05.007Z,2.20
2023-05-10T18:42:32.388Z,2.22
2023-05-10T18:44:59.662Z,2.25
2023-05-10T18:47:27.049Z,3.05
2023-05-10T18:49:55.186Z,1.83
2023-05-10T18:52:22.547Z,3.03
2023-05-10T18:54:50.495Z,1.77
2023-05-10T18:57:17.903Z,3.55
2023-05-10T18:59:45.329Z,1.92
2023-05-10T19:02:12.757Z,4.75
2023-05-10T19:04:40.152Z,2.38
2023-05-10T19:07:07.471Z,1.27
2023-05-10T19:09:34.778Z,1.67
2023-05-10T19:12:02.096Z,1.85
2023-05-10T19:14:29.762Z,2.00
2023-05-10T19:16:57.203Z,2.28
2023-05-10T19:19:24.682Z,3.13
2023-05-10T19:21:52.087Z,1.98
2023-05-10T19:24:24.152Z,0.75
2023-05-10T19:26:52.015Z,3.53
2023-05-10T19:29:19.375Z,2.53
2023-05-10T19:31:47.132Z,1.45
2023-05-10T19:34:14.532Z,2.40
2023-05-10T19:36:41.964Z,3.28
2023-05-10T19:39:09.513Z,2.20
2023-05-10T19:41:37.039Z,4.85
2023-05-10T19:44:04.739Z,3.35
2023-05-10T19:46:32.493Z,1.60
2023-05-10T19:48:59.816Z,1.30
2023-05-10T19:51:27.260Z,2.90
2023-05-10T19:53:54.564Z,2.08
2023-05-10T19:56:21.883Z,3.00
2023-05-10T19:58:49.266Z,1.60
2023-05-10T20:01:16.604Z,1.63
2023-05-10T20:03:44.008Z,3.00
2023-05-10T20:06:11.985Z,1.60
2023-05-10T20:08:39.337Z,2.95
2023-05-10T20:11:06.636Z,2.47
2023-05-10T20:13:33.942Z,2.30
2023-05-10T20:16:02.262Z,1.90
2023-05-10T20:18:29.588Z,2.58
2023-05-10T20:20:59.216Z,3.72
2023-05-10T20:23:27.076Z,1.65
2023-05-10T20:25:55.218Z,1.98
2023-05-10T20:28:26.380Z,2.80
2023-05-10T20:30:55.139Z,2.80
2023-05-10T20:33:25.779Z,3.60
2023-05-10T20:35:53.107Z,2.42
2023-05-10T20:38:21.068Z,1.00
2023-05-10T20:40:49.042Z,1.85
2023-05-10T20:43:16.408Z,2.53
2023-05-10T20:45:44.257Z,2.05
2023-05-10T20:48:11.686Z,3.50
2023-05-10T20:50:39.025Z,3.03
2023-05-10T20:53:06.474Z,2.13
2023-05-10T20:55:33.861Z,2.20
2023-05-10T20:58:03.442Z,1.25
2023-05-10T21:00:32.160Z,1.20
2023-05-10T21:02:59.508Z,1.80
2023-05-10T21:05:27.172Z,2.88
2023-05-10T21:07:54.643Z,2.63
2023-05-10T21:10:22.098Z,1.25
2023-05-10T21:12:49.780Z,2.67
2023-05-10T21:15:17.638Z,3.50
2023-05-10T21:17:45.858Z,4.60
2023-05-10T21:20:13.680Z,2.83
2023-05-10T21:22:41.422Z,3.75
2023-05-10T21:25:09.197Z,2.10
2023-05-10T21:27:36.961Z,2.67
2023-05-10T21:30:04.818Z,3.05
2023-05-10T21:32:32.234Z,3.30
2023-05-10T21:34:59.586Z,2.42
2023-05-10T21:37:26.884Z,3.17
2023-05-10T21:39:54.238Z,4.00
2023-05-10T21:42:21.608Z,3.05
2023-05-10T21:44:48.991Z,2.53
2023-05-10T21:47:17.266Z,5.30
2023-05-10T21:49:44.765Z,2.42
2023-05-10T21:52:12.155Z,5.07
2023-05-10T21:54:39.682Z,3.25
2023-05-10T21:57:07.049Z,3.28
2023-05-10T21:59:34.627Z,3.17
2023-05-10T22:02:01.974Z,1.67
2023-05-10T22:04:29.297Z,2.22
2023-05-10T22:06:56.619Z,2.83
2023-05-10T22:09:25.418Z,2.78
2023-05-10T22:11:52.806Z,3.97
2023-05-10T22:14:20.286Z,2.60
2023-05-10T22:16:47.661Z,4.05
2023-05-10T22:19:15.009Z,5.28
2023-05-10T22:21:42.473Z,3.50
2023-05-10T22:24:09.795Z,3.85
2023-05-10T22:26:37.183Z,2.95
2023-05-10T22:29:04.878Z,4.30
2023-05-10T22:31:32.376Z,4.20
2023-05-10T22:33:59.960Z,3.53
2023-05-10T22:36:27.400Z,1.83
2023-05-10T22:38:55.080Z,2.60
2023-05-10T22:41:23.195Z,2.33
2023-05-10T22:43:50.641Z,2.72
2023-05-10T22:46:18.190Z,2.78
2023-05-10T22:48:45.625Z,4.25
2023-05-10T22:51:12.903Z,4.57
2023-05-10T22:53:40.659Z,2.13
2023-05-10T22:56:08.166Z,2.95
2023-05-10T22:58:35.738Z,4.22
2023-05-10T23:01:03.162Z,3.47
2023-05-10T23:03:30.821Z,4.30
2023-05-10T23:05:58.164Z,3.17
2023-05-10T23:08:25.507Z,5.00
2023-05-10T23:10:52.895Z,2.35
2023-05-10T23:13:21.853Z,2.85
2023-05-10T23:15:49.269Z,4.05
2023-05-10T23:18:16.861Z,2.65
2023-05-10T23:20:44.386Z,2.63
2023-05-10T23:23:11.865Z,2.88
2023-05-10T23:25:39.297Z,3.50
2023-05-10T23:28:06.797Z,4.82
2023-05-10T23:30:34.397Z,3.70
2023-05-10T23:33:01.773Z,2.22
2023-05-10T23:35:29.074Z,3.10
2023-05-10T23:37:56.347Z,3.22
2023-05-10T23:40:23.713Z,4.35
2023-05-10T23:42:51.685Z,3.55
2023-05-10T23:45:19.175Z,3.65
2023-05-10T23:47:46.709Z,3.22
2023-05-10T23:50:14.064Z,4.13
2023-05-10T23:52:41.385Z,2.83
2023-05-10T23:55:09.477Z,2.25
2023-05-10T23:57:37.094Z,4.20
